Time;durP1;ratioP1;P1;durP2;ratioP2;P2;SDS_P1;SDS_P2;PMS_P1;PMS_P2;Temp;Humidity;BMP_temperature;BMP_pressure;BME280_temperature;BME280_humidity;BME280_pressure;Samples;Min_cycle;Max_cycle;Signal;HPM_P1;HPM_P2
2023/09/09 00:00:54;;;;;;;;;;;;;;;28.54;45.94;101665.34;5012580;28;19985;-64
2023/09/09 00:03:20;;;;;;;;;;;;;;;28.30;46.04;101637.50;5064144;28;19966;-65
2023/09/09 00:05:45;;;;;;;;;;;;;;;28.51;46.00;101663.94;4998648;28;19967;-66
2023/09/09 00:08:11;;;;;;;;;;;;;;;28.50;46.04;101656.94;5076415;28;20019;-66
2023/09/09 00:10:40;;;;;;;;;;;;;;;28.51;45.87;101668.47;5010779;28;19940;-65
2023/09/09 00:13:06;;;;;;;;;;;;;;;28.48;46.04;101655.50;5065165;28;19945;-66
2023/09/09 00:15:33;;;;;;;;;;;;;;;28.47;46.15;101656.56;5011261;28;19955;-66
2023/09/09 00:17:58;;;;;;;;;;;;;;;28.49;46.01;101659.84;5059112;28;19946;-66
2023/09/09 00:20:30;;;;;;;;;;;;;;;28.48;45.99;101658.19;5004969;28;20534;-65
2023/09/09 00:22:56;;;;;;;;;;;;;;;28.50;45.96;101661.47;5063807;28;19985;-66
2023/09/09 00:25:21;;;;;;;;;;;;;;;28.51;45.93;101661.25;5003551;28;19954;-66
2023/09/09 00:27:46;;;;;;;;;;;;;;;28.49;45.84;101651.78;5061620;28;19945;-66
2023/09/09 00:30:12;;;;;;;;;;;;;;;28.48;45.87;101655.50;5072220;27;20307;-66
2023/09/09 00:32:37;;;;;;;;;;;;;;;28.48;45.96;101647.47;5097740;27;19946;-67
2023/09/09 00:35:03;;;;;;;;;;;;;;;28.48;45.76;101647.47;5006239;28;19954;-66
2023/09/09 00:37:29;;;;;;;;;;;;;;;28.46;46.09;101647.69;5066024;28;19978;-67
2023/09/09 00:39:54;;;;;;;;;;;;;;;28.47;45.86;101641.31;4971575;28;19947;-66
2023/09/09 00:42:20;;;;;;;;;;;;;;;28.48;45.82;101642.94;5061736;28;19938;-66
2023/09/09 00:44:45;;;;;;;;;;;;;;;28.45;45.86;101650.59;4999661;28;20045;-66
2023/09/09 00:47:11;;;;;;;;;;;;;;;28.45;46.00;101639.88;5061700;28;19958;-66
2023/09/09 00:49:36;;;;;;;;;;;;;;;28.45;45.75;101637.19;5041153;27;19967;-66
2023/09/09 00:52:02;;;;;;;;;;;;;;;28.46;45.97;101636.16;5059797;28;20624;-66
2023/09/09 00:54:27;;;;;;;;;;;;;;;28.46;45.82;101638.84;4996502;28;19963;-66
2023/09/09 00:56:55;;;;;;;;;;;;;;;28.44;45.93;101638.25;5067099;28;19958;-66
2023/09/09 00:59:20;;;;;;;;;;;;;;;28.43;46.01;101641.97;5001076;28;20450;-67
2023/09/09 01:01:45;;;;;;;;;;;;;;;28.42;45.80;101633.09;5058885;28;19948;-66
2023/09/09 01:04:11;;;;;;;;;;;;;;;28.43;45.65;101634.75;5003444;28;19987;-66
2023/09/09 01:06:37;;;;;;;;;;;;;;;28.43;45.88;101641.97;5064884;28;20407;-66
2023/09/09 01:09:06;;;;;;;;;;;;;;;28.43;45.71;101639.28;5034682;28;20963;-66
2023/09/09 01:11:32;;;;;;;;;;;;;;;28.42;45.85;101643.00;5061781;28;19978;-66
2023/09/09 01:13:57;;;;;;;;;;;;;;;28.42;45.80;101641.13;5003028;28;21738;-66
2023/09/09 01:16:23;;;;;;;;;;;;;;;28.43;45.74;101640.09;5060477;28;20034;-66
2023/09/09 01:18:49;;;;;;;;;;;;;;;28.40;45.62;101635.19;5002752;28;21479;-67
2023/09/09 01:21:16;;;;;;;;;;;;;;;28.40;45.78;101634.38;5057964;28;19954;-66
2023/09/09 01:23:42;;;;;;;;;;;;;;;28.21;45.73;101602.13;5005611;28;19964;-66
2023/09/09 01:26:08;;;;;;;;;;;;;;;28.38;45.83;101631.09;5059280;28;20357;-67
2023/09/09 01:28:33;;;;;;;;;;;;;;;28.37;45.91;101624.06;5056645;28;20032;-66
2023/09/09 01:30:59;;;;;;;;;;;;;;;28.38;45.60;101629.22;5008002;28;20013;-66
2023/09/09 01:33:24;;;;;;;;;;;;;;;28.36;45.74;101627.78;5059921;28;19970;-66
2023/09/09 01:35:50;;;;;;;;;;;;;;;28.39;45.81;101624.69;4998377;28;20338;-66
2023/09/09 01:38:17;;;;;;;;;;;;;;;28.38;45.79;101629.22;5053660;28;20468;-66
2023/09/09 01:40:42;;;;;;;;;;;;;;;28.41;45.60;101633.31;5066541;28;19942;-66
2023/09/09 01:43:10;;;;;;;;;;;;;;;28.39;45.40;101638.09;4994705;28;19965;-66
2023/09/09 01:45:37;;;;;;;;;;;;;;;28.37;45.71;101630.28;5062102;28;20436;-66
2023/09/09 01:48:04;;;;;;;;;;;;;;;28.36;45.91;101633.13;5005870;28;19955;-66
2023/09/09 01:50:30;;;;;;;;;;;;;;;28.38;45.49;101634.59;5065865;28;19949;-67
2023/09/09 01:52:55;;;;;;;;;;;;;;;28.36;45.68;101630.47;5001015;28;20460;-66
2023/09/09 01:55:21;;;;;;;;;;;;;;;28.37;45.61;101634.78;5046283;28;20416;-66
2023/09/09 01:57:46;;;;;;;;;;;;;;;28.34;45.57;101625.31;5002812;28;19945;-66
2023/09/09 02:00:12;;;;;;;;;;;;;;;28.37;45.56;101637.44;5066001;28;19944;-66
2023/09/09 02:02:41;;;;;;;;;;;;;;;28.34;45.78;101630.69;4938837;28;1918474;-67
2023/09/09 02:05:07;;;;;;;;;;;;;;;28.33;45.42;101630.91;5056266;28;19941;-67
2023/09/09 02:07:32;;;;;;;;;;;;;;;28.32;45.76;101632.75;5001212;28;20577;-66
2023/09/09 02:09:58;;;;;;;;;;;;;;;28.34;45.59;101629.84;5072607;28;19948;-66
2023/09/09 02:12:30;;;;;;;;;;;;;;;28.33;45.63;101633.56;5006718;28;19957;-66
2023/09/09 02:14:55;;;;;;;;;;;;;;;28.14;45.61;101597.84;5080153;28;20380;-66
2023/09/09 02:17:21;;;;;;;;;;;;;;;28.33;45.50;101634.41;5006428;28;21810;-65
2023/09/09 02:19:49;;;;;;;;;;;;;;;28.32;45.58;101629.25;5066447;28;19942;-66
2023/09/09 02:22:16;;;;;;;;;;;;;;;28.32;45.63;101626.56;5025622;28;20768;-64
2023/09/09 02:24:47;;;;;;;;;;;;;;;28.13;45.36;101594.34;5050773;28;19939;-65
2023/09/09 02:27:15;;;;;;;;;;;;;;;28.31;45.52;101627.63;5026898;28;19970;-65
2023/09/09 02:29:44;;;;;;;;;;;;;;;28.29;45.79;101623.31;5039532;28;19943;-66
2023/09/09 02:32:11;;;;;;;;;;;;;;;28.31;45.53;101624.94;5030619;28;19946;-64
2023/09/09 02:34:42;;;;;;;;;;;;;;;28.29;45.38;101619.81;5041964;28;19970;-66
2023/09/09 02:37:18;;;;;;;;;;;;;;;28.32;45.39;101618.53;5036868;28;19953;-66
2023/09/09 02:39:45;;;;;;;;;;;;;;;28.21;45.39;101604.81;5056509;28;19942;-66
2023/09/09 02:42:12;;;;;;;;;;;;;;;28.32;45.42;101618.53;5057760;28;19955;-66
2023/09/09 02:44:37;;;;;;;;;;;;;;;28.28;45.33;101612.81;5058260;28;19942;-66
2023/09/09 02:47:03;;;;;;;;;;;;;;;28.27;45.55;101616.53;4996421;28;20354;-66
2023/09/09 02:49:28;;;;;;;;;;;;;;;28.28;45.51;101612.81;5089638;28;19987;-66
2023/09/09 02:51:54;;;;;;;;;;;;;;;28.28;45.40;101613.63;5002607;28;19955;-65
2023/09/09 02:54:19;;;;;;;;;;;;;;;28.27;45.60;101613.84;5057350;28;21163;-66
2023/09/09 02:56:45;;;;;;;;;;;;;;;28.28;45.48;101607.44;4995964;28;19954;-65
2023/09/09 02:59:11;;;;;;;;;;;;;;;28.27;45.47;101613.84;5057608;28;19961;-66
2023/09/09 03:01:37;;;;;;;;;;;;;;;28.30;45.51;101610.72;4992155;28;20563;-66
2023/09/09 03:04:03;;;;;;;;;;;;;;;28.27;45.22;101613.84;5089423;27;19974;-66
2023/09/09 03:06:28;;;;;;;;;;;;;;;28.25;45.48;101614.06;5013660;28;20663;-64
2023/09/09 03:08:53;;;;;;;;;;;;;;;28.26;45.53;101614.88;5056625;28;20037;-65
2023/09/09 03:11:19;;;;;;;;;;;;;;;28.26;45.40;101613.03;5031277;28;19994;-66
2023/09/09 03:13:55;;;;;;;;;;;;;;;28.25;45.54;101610.53;5047558;28;19943;-65
2023/09/09 03:16:20;;;;;;;;;;;;;;;28.24;45.40;101612.41;5001041;28;20688;-65
2023/09/09 03:18:45;;;;;;;;;;;;;;;28.24;45.43;101604.38;5046923;28;19987;-65
2023/09/09 03:21:14;;;;;;;;;;;;;;;28.24;45.33;101592.81;5012777;28;19944;-66
2023/09/09 03:23:40;;;;;;;;;;;;;;;28.23;45.30;101607.25;5058108;28;19958;-66
2023/09/09 03:26:18;;;;;;;;;;;;;;;28.24;45.25;101604.38;5029824;28;19962;-66
2023/09/09 03:28:44;;;;;;;;;;;;;;;28.23;45.38;101605.41;5059725;28;19931;-66
2023/09/09 03:31:16;;;;;;;;;;;;;;;28.00;45.38;101581.03;5053049;28;19959;-66
2023/09/09 03:33:42;;;;;;;;;;;;;;;28.22;45.25;101610.97;5031862;28;19940;-66
2023/09/09 03:36:09;;;;;;;;;;;;;;;28.20;45.23;101597.00;5051951;28;20014;-67
2023/09/09 03:38:36;;;;;;;;;;;;;;;28.01;45.18;101574.66;5035886;28;19955;-66
2023/09/09 03:41:06;;;;;;;;;;;;;;;28.21;45.45;101609.34;5080309;28;20058;-66
2023/09/09 03:43:35;;;;;;;;;;;;;;;28.20;45.32;101611.19;5014034;28;19974;-67
2023/09/09 03:46:00;;;;;;;;;;;;;;;28.22;45.27;101614.47;5091686;28;19956;-67
2023/09/09 03:48:28;;;;;;;;;;;;;;;28.21;45.32;101603.97;5045324;28;19970;-66
2023/09/09 03:50:58;;;;;;;;;;;;;;;28.19;45.11;101606.88;5022769;28;19972;-66
2023/09/09 03:53:24;;;;;;;;;;;;;;;28.19;45.04;101601.53;5058568;28;19977;-66
2023/09/09 03:55:49;;;;;;;;;;;;;;;28.17;45.11;101600.88;4998527;28;20965;-66
2023/09/09 03:58:15;;;;;;;;;;;;;;;28.15;45.34;101605.66;5049173;28;19944;-66
2023/09/09 04:00:40;;;;;;;;;;;;;;;28.19;45.19;101614.91;4998267;28;19928;-66
2023/09/09 04:03:06;;;;;;;;;;;;;;;28.17;45.31;101605.44;5058662;28;20040;-67
2023/09/09 04:05:32;;;;;;;;;;;;;;;28.16;45.45;101599.25;5008057;28;20051;-67
2023/09/09 04:07:58;;;;;;;;;;;;;;;28.16;45.05;101609.97;5069392;28;19992;-67
2023/09/09 04:10:24;;;;;;;;;;;;;;;28.15;45.15;101612.84;5007640;28;19969;-67
2023/09/09 04:12:49;;;;;;;;;;;;;;;28.16;45.29;101611.81;5057649;28;19940;-66
2023/09/09 04:15:15;;;;;;;;;;;;;;;28.16;45.09;101604.59;5006425;28;20468;-66
2023/09/09 04:17:40;;;;;;;;;;;;;;;28.15;45.32;101605.66;5068379;28;19941;-67
2023/09/09 04:20:06;;;;;;;;;;;;;;;28.16;45.44;101601.13;5008343;28;20007;-66
2023/09/09 04:22:32;;;;;;;;;;;;;;;27.95;45.29;101572.84;5058824;28;19954;-66
2023/09/09 04:24:58;;;;;;;;;;;;;;;28.13;45.34;101597.00;5003938;28;20113;-65
2023/09/09 04:27:24;;;;;;;;;;;;;;;28.14;44.94;101603.19;5058515;28;20071;-65
2023/09/09 04:29:49;;;;;;;;;;;;;;;28.13;44.96;101602.38;5008027;28;20469;-66
2023/09/09 04:32:14;;;;;;;;;;;;;;;28.10;45.34;101597.44;5100291;27;19943;-67
2023/09/09 04:34:40;;;;;;;;;;;;;;;28.11;45.26;101596.41;5005241;28;19936;-66
2023/09/09 04:37:06;;;;;;;;;;;;;;;28.12;45.34;101599.91;5063936;28;19942;-67
2023/09/09 04:39:31;;;;;;;;;;;;;;;28.11;45.26;101596.41;5000536;28;19955;-66
2023/09/09 04:41:56;;;;;;;;;;;;;;;28.11;45.20;101603.63;5066681;28;21217;-67
2023/09/09 04:44:22;;;;;;;;;;;;;;;28.12;45.09;101606.09;4998238;28;19952;-67
2023/09/09 04:46:47;;;;;;;;;;;;;;;28.10;45.01;101604.66;5058646;28;19959;-67
2023/09/09 04:49:13;;;;;;;;;;;;;;;28.10;45.06;101610.84;5062905;28;20477;-67
2023/09/09 04:51:39;;;;;;;;;;;;;;;28.10;45.04;101602.00;5009223;28;19974;-66
2023/09/09 04:54:04;;;;;;;;;;;;;;;28.11;44.99;101607.13;5056104;28;19966;-64
2023/09/09 04:56:30;;;;;;;;;;;;;;;28.10;44.87;101607.34;5004613;28;19951;-64
2023/09/09 04:58:55;;;;;;;;;;;;;;;28.09;45.12;101609.19;5062958;28;19984;-66
2023/09/09 05:01:21;;;;;;;;;;;;;;;28.10;45.02;101607.34;5000483;28;20384;-66
2023/09/09 05:03:47;;;;;;;;;;;;;;;28.08;45.05;101612.91;5092497;27;19975;-66
2023/09/09 05:06:12;;;;;;;;;;;;;;;28.11;45.00;101603.63;5001828;28;19958;-65
2023/09/09 05:08:38;;;;;;;;;;;;;;;28.08;44.96;101612.09;5055615;28;20487;-66
2023/09/09 05:11:03;;;;;;;;;;;;;;;28.09;45.18;101603.84;4997781;28;19947;-65
2023/09/09 05:13:31;;;;;;;;;;;;;;;28.09;44.94;101611.88;5058160;28;19950;-64
2023/09/09 05:15:58;;;;;;;;;;;;;;;28.06;45.11;101609.63;5015830;28;20063;-65
2023/09/09 05:18:23;;;;;;;;;;;;;;;28.05;45.07;101613.34;5064112;28;20036;-66
2023/09/09 05:20:49;;;;;;;;;;;;;;;28.08;45.05;101606.75;5004916;28;20060;-67
2023/09/09 05:23:15;;;;;;;;;;;;;;;28.07;44.95;101613.94;5076111;28;19952;-66
2023/09/09 05:25:40;;;;;;;;;;;;;;;28.07;44.99;101615.81;4999799;28;20413;-66
2023/09/09 05:28:06;;;;;;;;;;;;;;;28.02;45.04;101611.13;5060909;28;19988;-66
2023/09/09 05:30:31;;;;;;;;;;;;;;;28.03;45.03;101612.75;5001374;28;19969;-66
2023/09/09 05:32:57;;;;;;;;;;;;;;;28.06;45.02;101608.81;5064053;28;19943;-66
2023/09/09 05:35:22;;;;;;;;;;;;;;;28.05;45.00;101615.22;5010846;28;20063;-66
2023/09/09 05:37:48;;;;;;;;;;;;;;;28.03;44.99;101615.44;5057920;28;19939;-66
2023/09/09 05:40:14;;;;;;;;;;;;;;;28.04;44.91;101622.41;4999414;28;20456;-66
2023/09/09 05:42:39;;;;;;;;;;;;;;;28.03;44.96;101623.47;5064558;28;19940;-66
2023/09/09 05:45:05;;;;;;;;;;;;;;;28.05;44.82;101616.03;4983004;28;20680;-67
2023/09/09 05:47:32;;;;;;;;;;;;;;;28.06;44.61;101616.84;5101724;27;19994;-66
2023/09/09 05:49:57;;;;;;;;;;;;;;;28.02;45.02;101623.69;5052200;28;20375;-66
2023/09/09 05:52:23;;;;;;;;;;;;;;;28.00;44.72;101616.66;5059605;28;20398;-67
2023/09/09 05:54:53;;;;;;;;;;;;;;;28.01;44.89;101622.84;5029747;28;19962;-67
2023/09/09 05:57:24;;;;;;;;;;;;;;;28.03;44.88;101625.31;5048634;28;20064;-67
2023/09/09 05:59:51;;;;;;;;;;;;;;;28.03;44.98;101625.31;5031849;28;19989;-67
2023/09/09 06:02:18;;;;;;;;;;;;;;;28.03;44.92;101620.78;5038038;28;19949;-66
2023/09/09 06:04:57;;;;;;;;;;;;;;;27.86;44.87;101604.41;5047252;28;19968;-65
2023/09/09 06:07:25;;;;;;;;;;;;;;;28.00;44.66;101623.88;5069103;28;20015;-66
2023/09/09 06:09:50;;;;;;;;;;;;;;;28.02;45.05;101635.22;5032869;28;19985;-65
2023/09/09 06:12:17;;;;;;;;;;;;;;;28.01;45.05;101625.53;5051193;28;19951;-63
2023/09/09 06:14:43;;;;;;;;;;;;;;;27.99;45.02;101633.75;5053193;28;20363;-62
2023/09/09 06:17:08;;;;;;;;;;;;;;;28.03;44.94;101628.00;4994760;28;19947;-63
2023/09/09 06:19:34;;;;;;;;;;;;;;;28.02;45.08;101637.88;5062238;28;19952;-63
2023/09/09 06:21:59;;;;;;;;;;;;;;;27.99;45.24;101638.28;4995820;28;19953;-64
2023/09/09 06:24:26;;;;;;;;;;;;;;;28.02;45.08;101645.09;5075565;28;20069;-64
2023/09/09 06:26:52;;;;;;;;;;;;;;;28.01;44.75;101638.94;5009457;28;19958;-65
2023/09/09 06:29:17;;;;;;;;;;;;;;;28.01;45.22;101641.59;5075302;28;19951;-65
2023/09/09 06:31:43;;;;;;;;;;;;;;;28.03;45.08;101641.38;5024952;27;19955;-65
2023/09/09 06:34:10;;;;;;;;;;;;;;;28.03;44.90;101650.22;5086168;27;19941;-65
2023/09/09 06:36:36;;;;;;;;;;;;;;;27.84;45.04;101616.38;4991744;28;19963;-64
2023/09/09 06:39:03;;;;;;;;;;;;;;;28.00;45.16;101648.78;5057960;28;19988;-65
2023/09/09 06:41:28;;;;;;;;;;;;;;;28.00;44.99;101646.09;4997211;28;19999;-64
2023/09/09 06:43:53;;;;;;;;;;;;;;;28.04;45.25;101649.19;5054555;28;20490;-66
2023/09/09 06:46:19;;;;;;;;;;;;;;;28.04;45.14;101649.19;5002655;28;19959;-64
2023/09/09 06:48:44;;;;;;;;;;;;;;;28.05;45.40;101653.50;5049807;28;19935;-65
2023/09/09 06:51:10;;;;;;;;;;;;;;;28.02;45.29;101651.28;5000746;28;19952;-65
2023/09/09 06:53:35;;;;;;;;;;;;;;;28.03;45.05;101658.25;5033391;28;20514;-67
2023/09/09 06:56:01;;;;;;;;;;;;;;;28.01;45.39;101660.34;5051452;28;20486;-67
2023/09/09 06:58:26;;;;;;;;;;;;;;;28.02;45.22;101659.31;4997774;28;19950;-67
2023/09/09 07:00:52;;;;;;;;;;;;;;;28.05;45.19;101664.22;5051034;28;19939;-67
2023/09/09 07:03:18;;;;;;;;;;;;;;;28.05;45.09;101661.53;5001050;28;19974;-68
2023/09/09 07:05:43;;;;;;;;;;;;;;;28.04;45.07;101659.91;5053753;28;19941;-67
2023/09/09 07:08:09;;;;;;;;;;;;;;;28.04;45.10;101659.91;5002946;28;20092;-68
2023/09/09 07:10:34;;;;;;;;;;;;;;;28.05;45.41;101663.41;5056625;28;20421;-68
2023/09/09 07:13:00;;;;;;;;;;;;;;;28.06;45.25;101667.72;4999304;28;19955;-68
2023/09/09 07:15:25;;;;;;;;;;;;;;;28.10;45.44;101672.44;5055353;28;19958;-67
2023/09/09 07:17:50;;;;;;;;;;;;;;;28.11;45.43;101673.25;5000411;28;19957;-66
2023/09/09 07:20:16;;;;;;;;;;;;;;;28.14;45.21;101673.63;5058318;28;19939;-67
2023/09/09 07:22:42;;;;;;;;;;;;;;;28.14;45.39;101675.47;4995079;28;19960;-69
2023/09/09 07:25:07;;;;;;;;;;;;;;;28.14;45.57;101680.84;5057191;28;19939;-69
2023/09/09 07:27:33;;;;;;;;;;;;;;;28.08;45.77;101679.84;5001139;28;20014;-70
2023/09/09 07:29:58;;;;;;;;;;;;;;;28.08;45.81;101681.72;5049819;28;20277;-67
2023/09/09 07:32:24;;;;;;;;;;;;;;;28.13;45.70;101679.19;4998996;28;19950;-66
2023/09/09 07:34:50;;;;;;;;;;;;;;;28.13;45.76;101688.06;5059508;28;20534;-66
2023/09/09 07:37:18;;;;;;;;;;;;;;;27.95;45.67;101658.50;5015074;28;20052;-66
2023/09/09 07:39:49;;;;;;;;;;;;;;;28.17;45.66;101685.75;5039052;28;20042;-66
2023/09/09 07:42:14;;;;;;;;;;;;;;;28.18;45.67;101693.56;5002910;28;20490;-65
2023/09/09 07:44:39;;;;;;;;;;;;;;;28.14;46.17;101688.88;5050977;28;19941;-66
2023/09/09 07:47:07;;;;;;;;;;;;;;;27.80;47.04;101693.56;5053755;28;19960;-65
2023/09/09 07:49:35;;;;;;;;;;;;;;;27.75;47.35;101696.06;5021523;28;19960;-64
2023/09/09 07:52:02;;;;;;;;;;;;;;;27.64;48.09;101702.06;5036506;28;19946;-66
2023/09/09 07:54:34;;;;;;;;;;;;;;;27.54;48.37;101697.13;5051075;28;19946;-67
2023/09/09 07:57:01;;;;;;;;;;;;;;;27.60;48.30;101690.94;5051984;28;19947;-67
2023/09/09 07:59:29;;;;;;;;;;;;;;;27.80;47.62;101692.75;5020928;28;19963;-63
2023/09/09 08:01:55;;;;;;;;;;;;;;;27.90;47.08;101695.81;5037647;28;19943;-63
2023/09/09 08:04:20;;;;;;;;;;;;;;;27.92;47.25;101696.41;5059255;28;20335;-63
2023/09/09 08:06:48;;;;;;;;;;;;;;;27.94;47.05;101694.34;5026390;28;20015;-63
2023/09/09 08:09:15;;;;;;;;;;;;;;;27.87;47.71;101693.56;5071565;28;19939;-63
2023/09/09 08:11:41;;;;;;;;;;;;;;;27.94;47.72;101689.81;5037675;28;20450;-63
2023/09/09 08:14:07;;;;;;;;;;;;;;;27.97;47.18;101694.72;5039730;28;19938;-63
2023/09/09 08:16:32;;;;;;;;;;;;;;;28.02;47.44;101694.09;5060706;28;19969;-63
2023/09/09 08:19:03;;;;;;;;;;;;;;;28.08;47.23;101698.59;5028106;28;19961;-63
2023/09/09 08:21:29;;;;;;;;;;;;;;;28.11;47.29;101692.81;5068804;28;19944;-63
2023/09/09 08:23:58;;;;;;;;;;;;;;;28.15;47.31;101695.88;5004690;28;20515;-63
2023/09/09 08:26:25;;;;;;;;;;;;;;;28.14;47.46;101692.38;5058451;28;19962;-63
2023/09/09 08:28:50;;;;;;;;;;;;;;;28.19;47.22;101695.25;5002944;28;20006;-66
2023/09/09 08:31:15;;;;;;;;;;;;;;;28.12;47.68;101691.78;5060703;28;20050;-67
2023/09/09 08:33:41;;;;;;;;;;;;;;;28.17;47.21;101691.94;5007295;28;19984;-67
2023/09/09 08:36:06;;;;;;;;;;;;;;;28.19;47.46;101691.75;5064191;28;19987;-67
2023/09/09 08:38:32;;;;;;;;;;;;;;;28.18;47.57;101698.13;5008089;28;20000;-65
2023/09/09 08:41:03;;;;;;;;;;;;;;;28.18;47.67;101696.25;5063621;28;20036;-64
2023/09/09 08:43:50;;;;;;;;;;;;;;;28.19;47.47;101697.94;5003637;28;19954;-64
2023/09/09 08:46:17;;;;;;;;;;;;;;;28.20;47.60;101704.94;5060294;28;20148;-64
2023/09/09 08:48:45;;;;;;;;;;;;;;;28.30;47.50;101704.47;5012777;28;19962;-63
2023/09/09 08:51:15;;;;;;;;;;;;;;;28.32;47.81;101706.94;5063157;28;20782;-64
2023/09/09 08:53:41;;;;;;;;;;;;;;;28.06;48.27;101702.53;5003043;28;20655;-66
2023/09/09 08:56:07;;;;;;;;;;;;;;;27.97;48.96;101707.28;5066101;28;20543;-66
2023/09/09 08:58:32;;;;;;;;;;;;;;;28.08;48.48;101711.97;5003416;28;19954;-66
2023/09/09 09:00:58;;;;;;;;;;;;;;;28.10;48.38;101717.94;5063412;28;19941;-72
2023/09/09 09:03:24;;;;;;;;;;;;;;;28.02;48.23;101695.97;5003707;28;19972;-72
2023/09/09 09:05:50;;;;;;;;;;;;;;;28.19;48.07;101716.69;5058828;28;20044;-72
2023/09/09 09:08:17;;;;;;;;;;;;;;;28.20;47.99;101714.81;5002064;28;20031;-72
2023/09/09 09:10:42;;;;;;;;;;;;;;;28.22;48.07;101715.41;5041022;28;19959;-69
2023/09/09 09:13:08;;;;;;;;;;;;;;;28.23;47.92;101717.06;5056517;28;19942;-69
2023/09/09 09:15:35;;;;;;;;;;;;;;;28.25;47.74;101718.53;5000226;28;19965;-69
2023/09/09 09:18:01;;;;;;;;;;;;;;;28.26;47.76;101719.34;5061014;28;19942;-70
2023/09/09 09:20:28;;;;;;;;;;;;;;;28.25;47.66;101717.66;5008106;28;19957;-69
2023/09/09 09:22:56;;;;;;;;;;;;;;;28.25;47.87;101721.19;5064587;28;19937;-68
2023/09/09 09:25:22;;;;;;;;;;;;;;;28.26;47.81;101720.16;5004347;28;19942;-69
2023/09/09 09:27:47;;;;;;;;;;;;;;;28.24;47.77;101730.25;5070587;28;19967;-69
2023/09/09 09:30:13;;;;;;;;;;;;;;;28.26;47.70;101720.16;5005252;28;21725;-69
2023/09/09 09:32:40;;;;;;;;;;;;;;;28.23;47.77;101730.44;5058145;28;19950;-69
2023/09/09 09:35:05;;;;;;;;;;;;;;;28.25;47.70;101731.06;5007329;28;19938;-68
2023/09/09 09:37:31;;;;;;;;;;;;;;;28.26;47.77;101724.69;5061699;28;20526;-68
2023/09/09 09:39:56;;;;;;;;;;;;;;;28.28;47.52;101731.47;5002355;28;20043;-68
2023/09/09 09:42:22;;;;;;;;;;;;;;;28.28;47.69;101720.75;5065340;28;19948;-69
2023/09/09 09:44:47;;;;;;;;;;;;;;;28.28;47.65;101719.94;5003867;28;20481;-69
2023/09/09 09:47:14;;;;;;;;;;;;;;;28.28;47.60;101720.75;5068781;28;19961;-70
2023/09/09 09:49:40;;;;;;;;;;;;;;;28.28;47.76;101722.63;5007620;28;19950;-69
2023/09/09 09:52:07;;;;;;;;;;;;;;;28.28;47.48;101718.09;5063326;28;19951;-69
2023/09/09 09:54:33;;;;;;;;;;;;;;;28.25;47.92;101717.66;5003583;28;19950;-69
2023/09/09 09:57:00;;;;;;;;;;;;;;;28.26;47.77;101719.34;5055882;28;19966;-69
2023/09/09 09:59:28;;;;;;;;;;;;;;;28.28;47.48;101719.94;5004913;28;20053;-69
2023/09/09 10:01:55;;;;;;;;;;;;;;;28.28;47.75;101715.41;5066589;28;19947;-69
2023/09/09 10:04:21;;;;;;;;;;;;;;;28.29;47.71;101710.88;5005663;28;19970;-68
2023/09/09 10:06:47;;;;;;;;;;;;;;;28.29;47.57;101705.50;5060243;28;20046;-69
2023/09/09 10:09:13;;;;;;;;;;;;;;;28.32;47.58;101706.94;5004450;28;20505;-69
2023/09/09 10:11:44;;;;;;;;;;;;;;;28.33;47.46;101705.91;5060379;28;19943;-69
2023/09/09 10:14:09;;;;;;;;;;;;;;;28.33;47.43;101706.72;4995050;28;20921;-69
2023/09/09 10:16:36;;;;;;;;;;;;;;;28.32;47.64;101698.91;5064248;28;19941;-69
2023/09/09 10:19:03;;;;;;;;;;;;;;;28.32;47.58;101704.25;5045755;28;20089;-65
2023/09/09 10:21:30;;;;;;;;;;;;;;;28.33;47.65;101700.53;5061631;28;20529;-67
2023/09/09 10:23:56;;;;;;;;;;;;;;;28.32;47.62;101704.25;4997576;28;20553;-67
2023/09/09 10:26:21;;;;;;;;;;;;;;;28.33;47.51;101708.56;5062005;28;19956;-66
2023/09/09 10:28:48;;;;;;;;;;;;;;;28.35;47.47;101706.50;5011232;28;19966;-66
2023/09/09 10:31:14;;;;;;;;;;;;;;;28.33;47.46;101709.41;5062351;28;21189;-66
2023/09/09 10:33:41;;;;;;;;;;;;;;;28.32;47.57;101709.63;4996583;28;19950;-73
2023/09/09 10:36:07;;;;;;;;;;;;;;;28.34;47.72;101708.34;5063654;28;20798;-72
2023/09/09 10:38:33;;;;;;;;;;;;;;;28.34;47.57;101700.31;5003204;28;20001;-72
2023/09/09 10:40:59;;;;;;;;;;;;;;;28.37;47.62;101701.75;5055436;28;20414;-72
2023/09/09 10:43:24;;;;;;;;;;;;;;;28.36;47.58;101700.91;5002699;28;19946;-66
2023/09/09 10:45:50;;;;;;;;;;;;;;;28.37;47.52;101705.28;5062048;28;19935;-66
2023/09/09 10:48:20;;;;;;;;;;;;;;;28.35;47.66;101701.13;5005686;28;20344;-66
2023/09/09 10:50:47;;;;;;;;;;;;;;;28.34;47.68;101704.84;5058147;28;19944;-66
2023/09/09 10:53:12;;;;;;;;;;;;;;;28.35;47.82;101701.13;4999692;28;20377;-67
2023/09/09 10:55:37;;;;;;;;;;;;;;;28.34;47.88;101704.84;5063232;28;20010;-66
2023/09/09 10:58:05;;;;;;;;;;;;;;;28.35;47.80;101709.19;5003811;28;19978;-67
2023/09/09 11:00:40;;;;;;;;;;;;;;;28.36;47.87;101705.47;5058260;28;19971;-66
2023/09/09 11:03:10;;;;;;;;;;;;;;;28.38;47.72;101706.91;4999670;28;19984;-67
2023/09/09 11:05:54;;;;;;;;;;;;;;;28.39;47.79;101699.69;5056356;28;19967;-66
2023/09/09 11:08:32;;;;;;;;;;;;;;;28.41;47.60;101706.47;5004288;28;19977;-66
2023/09/09 11:11:14;;;;;;;;;;;;;;;28.41;47.73;101700.28;5063463;28;20102;-66
2023/09/09 11:13:41;;;;;;;;;;;;;;;28.39;47.62;101700.50;5003112;28;19945;-66
2023/09/09 11:16:07;;;;;;;;;;;;;;;28.38;47.82;101704.22;5062149;28;19936;-66
2023/09/09 11:18:36;;;;;;;;;;;;;;;28.40;47.74;101698.66;5009279;28;19958;-66
2023/09/09 11:21:03;;;;;;;;;;;;;;;28.40;47.78;101698.66;5054897;28;20041;-66
2023/09/09 11:23:28;;;;;;;;;;;;;;;28.41;47.95;101700.28;5002069;28;20032;-66
2023/09/09 11:25:55;;;;;;;;;;;;;;;28.38;48.05;101701.56;5042292;28;20020;-66
2023/09/09 11:28:21;;;;;;;;;;;;;;;28.40;47.80;101701.34;5052542;28;19945;-66
2023/09/09 11:30:47;;;;;;;;;;;;;;;28.41;47.80;101702.97;5057878;28;19938;-66
2023/09/09 11:33:25;;;;;;;;;;;;;;;28.41;48.03;101703.78;4993451;28;19950;-66
2023/09/09 11:35:50;;;;;;;;;;;;;;;28.41;47.73;101703.78;5058661;28;19932;-65
2023/09/09 11:38:15;;;;;;;;;;;;;;;28.44;47.76;101705.22;5002515;28;20468;-66
2023/09/09 11:40:41;;;;;;;;;;;;;;;28.45;47.82;101706.84;5059495;28;20013;-65
2023/09/09 11:43:10;;;;;;;;;;;;;;;28.45;47.82;101707.69;5005427;28;20333;-65
2023/09/09 11:45:35;;;;;;;;;;;;;;;28.45;47.85;101707.69;5066180;28;19941;-66
2023/09/09 11:48:02;;;;;;;;;;;;;;;28.46;47.76;101705.81;5002693;28;20053;-66
2023/09/09 11:50:37;;;;;;;;;;;;;;;28.47;47.85;101702.91;5055215;28;20036;-67
2023/09/09 11:53:03;;;;;;;;;;;;;;;28.49;47.84;101708.88;5000780;28;20660;-66
2023/09/09 11:55:28;;;;;;;;;;;;;;;28.48;47.90;101703.75;5061057;28;19984;-67
2023/09/09 11:57:55;;;;;;;;;;;;;;;28.53;47.73;101709.25;5002524;28;20003;-66
2023/09/09 12:00:23;;;;;;;;;;;;;;;28.53;47.78;101714.63;5064653;28;19967;-66
2023/09/09 12:02:48;;;;;;;;;;;;;;;28.51;47.81;101708.66;5009962;28;19943;-66
2023/09/09 12:05:15;;;;;;;;;;;;;;;28.50;47.83;101707.84;5056394;28;19963;-66
2023/09/09 12:07:42;;;;;;;;;;;;;;;28.52;47.89;101710.31;5000555;28;20061;-67
2023/09/09 12:10:12;;;;;;;;;;;;;;;28.53;47.81;101710.06;5056080;28;20047;-67
2023/09/09 12:12:39;;;;;;;;;;;;;;;28.53;47.79;101707.41;4998411;28;20150;-67
2023/09/09 12:15:05;;;;;;;;;;;;;;;28.54;47.74;101716.25;5056392;28;20604;-66
2023/09/09 12:17:31;;;;;;;;;;;;;;;28.54;47.84;101705.53;4999943;28;19955;-67
2023/09/09 12:19:57;;;;;;;;;;;;;;;28.55;47.88;101699.19;5062982;28;19941;-68
2023/09/09 12:22:32;;;;;;;;;;;;;;;28.58;47.71;101698.72;5004820;28;19958;-66
2023/09/09 12:24:58;;;;;;;;;;;;;;;28.57;47.71;101700.59;5073929;28;19940;-67
2023/09/09 12:27:38;;;;;;;;;;;;;;;28.57;47.67;101707.81;5003004;28;19963;-67
2023/09/09 12:30:04;;;;;;;;;;;;;;;28.58;48.00;101712.13;5056440;28;20471;-68
2023/09/09 12:32:29;;;;;;;;;;;;;;;28.59;47.98;101709.22;5004574;28;20058;-67